Time;durP1;ratioP1;P1;durP2;ratioP2;P2;SDS_P1;SDS_P2;PMS_P1;PMS_P2;Temp;Humidity;BMP_temperature;BMP_pressure;BME280_temperature;BME280_humidity;BME280_pressure;Samples;Min_cycle;Max_cycle;Signal;HPM_P1;HPM_P2
2024/03/29 00:01:34;;;;;;;3.53;1.00;;;7.90;99.90;;;;;;7364902;19;20022;-61
2024/03/29 00:04:00;;;;;;;6.95;1.38;;;7.90;99.90;;;;;;7361025;19;20828;-61
2024/03/29 00:06:26;;;;;;;6.75;1.30;;;8.00;99.90;;;;;;7367131;19;20036;-64
2024/03/29 00:08:52;;;;;;;4.68;1.13;;;8.00;99.90;;;;;;7367120;19;20026;-61
2024/03/29 00:11:19;;;;;;;5.35;1.38;;;8.00;99.90;;;;;;7367059;19;20019;-63
2024/03/29 00:13:45;;;;;;;6.03;1.13;;;8.00;99.90;;;;;;7368907;19;20018;-63
2024/03/29 00:16:11;;;;;;;6.20;1.10;;;8.00;99.90;;;;;;7367246;19;20018;-64
2024/03/29 00:18:38;;;;;;;7.53;1.35;;;8.00;99.90;;;;;;7365517;19;20023;-63
2024/03/29 00:21:04;;;;;;;5.10;1.30;;;8.00;99.90;;;;;;7369692;19;20026;-63
2024/03/29 00:23:30;;;;;;;3.60;1.27;;;8.00;99.90;;;;;;7363397;19;20022;-64
2024/03/29 00:25:58;;;;;;;4.82;1.20;;;8.00;99.90;;;;;;7367660;19;20026;-64
2024/03/29 00:28:24;;;;;;;5.47;1.20;;;8.00;99.90;;;;;;7364938;19;20026;-64
2024/03/29 00:30:50;;;;;;;4.40;0.90;;;8.00;99.90;;;;;;7368407;19;20018;-63
2024/03/29 00:33:17;;;;;;;5.85;1.25;;;8.00;99.90;;;;;;7362921;19;20041;-64
2024/03/29 00:35:43;;;;;;;4.20;1.00;;;7.90;99.90;;;;;;7369997;19;20837;-63
2024/03/29 00:38:09;;;;;;;5.18;1.35;;;7.90;99.90;;;;;;7365575;19;20497;-61
2024/03/29 00:40:38;;;;;;;4.47;1.15;;;8.00;99.90;;;;;;7363150;19;20034;-63
2024/03/29 00:43:04;;;;;;;3.63;1.10;;;7.90;99.90;;;;;;7365885;19;20023;-62
2024/03/29 00:45:31;;;;;;;4.20;0.90;;;7.90;99.90;;;;;;7363481;19;20101;-63
2024/03/29 00:47:57;;;;;;;6.03;1.08;;;7.90;99.90;;;;;;7361482;19;20093;-63
2024/03/29 00:50:23;;;;;;;3.60;0.98;;;7.90;99.90;;;;;;7364935;19;20792;-61
2024/03/29 00:52:49;;;;;;;3.35;1.00;;;7.90;99.90;;;;;;7366909;19;20019;-61
2024/03/29 00:55:16;;;;;;;4.63;1.20;;;7.90;99.90;;;;;;7362169;19;20249;-62
2024/03/29 00:57:42;;;;;;;4.32;2.30;;;7.90;99.90;;;;;;7366341;19;20018;-63
2024/03/29 01:00:10;;;;;;;4.88;1.13;;;7.90;99.90;;;;;;7366875;19;20014;-62
2024/03/29 01:02:36;;;;;;;8.80;1.00;;;7.80;99.90;;;;;;7373192;19;20030;-59
2024/03/29 01:05:02;;;;;;;5.43;1.17;;;7.80;99.90;;;;;;7370564;19;20021;-59
2024/03/29 01:07:29;;;;;;;4.00;1.10;;;7.70;99.90;;;;;;7374892;19;20049;-60
2024/03/29 01:09:55;;;;;;;4.97;1.17;;;7.70;99.90;;;;;;7371291;19;20030;-60
2024/03/29 01:12:21;;;;;;;2.90;1.10;;;7.80;99.90;;;;;;7372354;19;20025;-60
2024/03/29 01:14:47;;;;;;;6.05;1.50;;;7.70;99.90;;;;;;7375775;19;20025;-62
2024/03/29 01:17:13;;;;;;;3.92;1.02;;;7.70;99.90;;;;;;7370287;19;20494;-63
2024/03/29 01:19:39;;;;;;;4.80;1.58;;;7.70;99.90;;;;;;7372944;19;20081;-61
2024/03/29 01:22:06;;;;;;;5.00;1.20;;;7.70;99.90;;;;;;7366683;19;20019;-61
2024/03/29 01:24:32;;;;;;;4.25;1.48;;;7.80;99.90;;;;;;7370508;19;20035;-61
2024/03/29 01:26:58;;;;;;;5.93;1.50;;;7.80;99.90;;;;;;7365711;19;20026;-60
2024/03/29 01:29:27;;;;;;;6.25;1.42;;;7.80;99.90;;;;;;7370193;19;20018;-61
2024/03/29 01:31:53;;;;;;;4.65;1.38;;;7.80;99.90;;;;;;7372522;19;20022;-63
2024/03/29 01:34:19;;;;;;;3.83;1.10;;;7.80;99.90;;;;;;7371629;19;20501;-60
2024/03/29 01:36:46;;;;;;;5.40;1.10;;;7.80;99.90;;;;;;7370083;19;20018;-61
2024/03/29 01:39:14;;;;;;;5.90;1.35;;;7.80;99.90;;;;;;7375197;19;20636;-61
2024/03/29 01:41:40;;;;;;;5.90;1.50;;;7.80;99.90;;;;;;7369270;19;20022;-60
2024/03/29 01:44:07;;;;;;;4.40;1.40;;;7.70;99.90;;;;;;7369343;19;20018;-61
2024/03/29 01:46:36;;;;;;;6.10;1.50;;;7.80;99.90;;;;;;7368697;19;20756;-61
2024/03/29 01:49:03;;;;;;;3.65;1.25;;;7.70;99.90;;;;;;7374826;19;20014;-63
2024/03/29 01:51:31;;;;;;;6.25;1.38;;;7.80;99.90;;;;;;7370504;19;20848;-60
2024/03/29 01:53:59;;;;;;;5.40;1.23;;;7.80;99.90;;;;;;7373455;19;20026;-61
2024/03/29 01:56:26;;;;;;;2.10;1.05;;;7.70;99.90;;;;;;7368865;19;20019;-60
2024/03/29 01:58:55;;;;;;;3.33;1.02;;;7.80;99.90;;;;;;7374925;19;20019;-60
2024/03/29 02:01:21;;;;;;;5.20;1.40;;;7.70;99.90;;;;;;7366325;19;20014;-60
2024/03/29 02:03:48;;;;;;;5.82;1.13;;;7.70;99.90;;;;;;7369545;19;20022;-60
2024/03/29 02:06:15;;;;;;;3.67;1.30;;;7.60;99.90;;;;;;7368147;19;20029;-60
2024/03/29 02:08:42;;;;;;;4.90;1.10;;;7.60;99.90;;;;;;7370002;19;20466;-62
2024/03/29 02:11:08;;;;;;;5.65;1.48;;;7.60;99.90;;;;;;7370504;19;20025;-62
2024/03/29 02:13:34;;;;;;;4.07;1.30;;;7.60;99.90;;;;;;7367033;19;20056;-60
2024/03/29 02:16:01;;;;;;;3.92;1.10;;;7.60;99.90;;;;;;7372151;19;20378;-62
2024/03/29 02:18:27;;;;;;;5.60;1.63;;;7.60;99.90;;;;;;7370408;19;20021;-61
2024/03/29 02:20:53;;;;;;;4.10;1.30;;;7.60;99.90;;;;;;7366939;19;20044;-60
2024/03/29 02:23:32;;;;;;;6.38;1.40;;;7.60;99.90;;;;;;7367986;19;20125;-60
2024/03/29 02:25:58;;;;;;;6.07;1.23;;;7.60;99.90;;;;;;7374378;19;20018;-63
2024/03/29 02:28:25;;;;;;;3.40;1.00;;;7.60;99.90;;;;;;7368267;19;21004;-62
2024/03/29 02:30:51;;;;;;;4.07;1.42;;;7.60;99.90;;;;;;7374166;19;20116;-62
2024/03/29 02:33:20;;;;;;;4.53;1.10;;;7.60;99.90;;;;;;7359662;19;20056;-60
2024/03/29 02:35:46;;;;;;;5.45;1.25;;;7.60;99.90;;;;;;7369758;19;20022;-60
2024/03/29 02:38:13;;;;;;;6.35;1.35;;;7.60;99.90;;;;;;7368791;19;20831;-62
2024/03/29 02:40:39;;;;;;;5.45;1.30;;;7.70;99.90;;;;;;7367820;19;20022;-60
2024/03/29 02:43:05;;;;;;;5.53;1.25;;;7.60;99.90;;;;;;7370007;19;20516;-61
2024/03/29 02:45:31;;;;;;;5.65;1.50;;;7.60;99.90;;;;;;7367557;19;20441;-60
2024/03/29 02:47:58;;;;;;;4.18;1.15;;;7.60;99.90;;;;;;7373527;19;20499;-60
2024/03/29 02:50:24;;;;;;;5.25;1.10;;;7.60;99.90;;;;;;7370441;19;20025;-62
2024/03/29 02:52:50;;;;;;;3.30;1.27;;;7.60;99.90;;;;;;7367891;19;20084;-60
2024/03/29 02:55:16;;;;;;;3.17;1.10;;;7.60;99.90;;;;;;7367450;19;20605;-60
2024/03/29 02:57:43;;;;;;;6.30;1.33;;;7.60;99.90;;;;;;7371717;19;20487;-60
2024/03/29 03:00:09;;;;;;;2.88;0.80;;;7.60;99.90;;;;;;7356774;19;20090;-61
2024/03/29 03:02:39;;;;;;;3.60;1.20;;;7.60;99.90;;;;;;7365053;19;20367;-59
2024/03/29 03:05:06;;;;;;;3.22;1.35;;;7.60;99.90;;;;;;7363203;19;20018;-61
2024/03/29 03:13:02;;;;;;;3.65;1.30;;;7.70;99.90;;;;;;7367189;19;20449;-66
2024/03/29 03:15:28;;;;;;;4.45;1.00;;;7.80;99.90;;;;;;7366368;19;20497;-61
2024/03/29 03:17:54;;;;;;;7.03;1.17;;;7.80;99.90;;;;;;7368705;19;20014;-63
2024/03/29 03:20:40;;;;;;;5.90;1.05;;;7.80;99.90;;;;;;7371491;19;20015;-60
2024/03/29 03:23:07;;;;;;;4.35;1.27;;;7.80;99.90;;;;;;7369960;19;20382;-62
2024/03/29 03:25:34;;;;;;;6.75;1.33;;;7.80;99.90;;;;;;7362003;19;21771;-61
2024/03/29 03:28:00;;;;;;;7.32;1.10;;;7.90;99.90;;;;;;7368641;19;20385;-61
2024/03/29 03:30:26;;;;;;;3.47;1.10;;;7.80;99.90;;;;;;7363099;19;20836;-61
2024/03/29 03:32:52;;;;;;;5.10;1.05;;;7.80;99.90;;;;;;7372919;19;20078;-62
2024/03/29 03:35:19;;;;;;;3.00;1.20;;;7.90;99.90;;;;;;7361424;19;20065;-63
2024/03/29 03:37:45;;;;;;;5.28;1.23;;;7.80;99.90;;;;;;7369098;19;20022;-63
2024/03/29 03:40:11;;;;;;;5.30;1.00;;;7.80;99.90;;;;;;7369089;19;20771;-60
2024/03/29 03:42:37;;;;;;;6.07;1.05;;;7.80;99.90;;;;;;7371259;19;20458;-60
2024/03/29 03:45:03;;;;;;;8.23;1.33;;;7.80;99.90;;;;;;7363793;19;20399;-61
2024/03/29 03:47:30;;;;;;;5.88;1.20;;;7.90;99.90;;;;;;7359769;19;20045;-59
2024/03/29 03:49:57;;;;;;;4.47;1.50;;;7.90;99.90;;;;;;7371789;19;20032;-60
2024/03/29 03:52:23;;;;;;;5.60;1.30;;;7.90;99.90;;;;;;7369389;19;20022;-62
2024/03/29 03:54:49;;;;;;;2.20;0.70;;;7.90;99.90;;;;;;7367116;19;20795;-61
2024/03/29 03:57:15;;;;;;;4.53;1.13;;;7.90;99.90;;;;;;7375252;19;20048;-60
2024/03/29 03:59:41;;;;;;;3.55;1.08;;;7.90;99.90;;;;;;7366335;19;20014;-61
2024/03/29 04:02:07;;;;;;;4.28;1.30;;;7.90;99.90;;;;;;7363767;19;20479;-60
2024/03/29 04:04:33;;;;;;;3.97;1.10;;;8.00;99.90;;;;;;7362351;19;20492;-63
2024/03/29 04:07:00;;;;;;;4.68;1.25;;;8.00;99.90;;;;;;7373635;19;20024;-60
2024/03/29 04:09:26;;;;;;;6.18;1.30;;;8.00;99.90;;;;;;7368800;19;20029;-63
2024/03/29 04:11:52;;;;;;;3.67;0.90;;;8.00;99.90;;;;;;7371905;19;20380;-61
2024/03/29 04:14:18;;;;;;;6.20;1.20;;;8.00;99.90;;;;;;7363494;19;20027;-60
2024/03/29 04:16:46;;;;;;;4.65;1.17;;;8.10;99.90;;;;;;7367187;19;20021;-64
2024/03/29 04:19:13;;;;;;;5.68;1.33;;;8.00;99.90;;;;;;7364244;19;20694;-65
2024/03/29 04:21:39;;;;;;;4.47;1.02;;;8.00;99.90;;;;;;7362702;19;20044;-63
2024/03/29 04:24:08;;;;;;;6.22;1.00;;;8.00;99.90;;;;;;7360946;19;20019;-63
2024/03/29 04:26:34;;;;;;;4.70;1.00;;;8.00;99.90;;;;;;7363959;19;20505;-60
2024/03/29 04:29:00;;;;;;;4.25;1.00;;;8.10;99.90;;;;;;7364038;19;20497;-63
2024/03/29 04:31:26;;;;;;;5.10;1.10;;;8.10;99.90;;;;;;7357606;19;20403;-60
2024/03/29 04:33:53;;;;;;;4.32;0.95;;;8.10;99.90;;;;;;7364320;19;20022;-63
2024/03/29 04:36:19;;;;;;;6.65;1.48;;;8.10;99.90;;;;;;7367963;19;20098;-61
2024/03/29 04:38:45;;;;;;;5.18;1.05;;;8.10;99.90;;;;;;7372500;19;20018;-63
2024/03/29 04:41:11;;;;;;;3.72;1.10;;;8.10;99.90;;;;;;7375036;19;20524;-61
2024/03/29 04:43:37;;;;;;;4.93;1.20;;;8.10;99.90;;;;;;7372094;19;20034;-63
2024/03/29 04:46:09;;;;;;;5.85;1.10;;;8.10;99.90;;;;;;7370645;19;20018;-63
2024/03/29 04:48:36;;;;;;;7.45;1.17;;;8.10;99.90;;;;;;7372034;19;20827;-61
2024/03/29 04:51:04;;;;;;;2.38;0.90;;;8.20;99.90;;;;;;7377074;19;20081;-61
2024/03/29 04:53:31;;;;;;;3.85;0.90;;;8.10;99.90;;;;;;7366318;19;20593;-60
2024/03/29 04:55:58;;;;;;;4.10;1.00;;;8.10;99.90;;;;;;7371587;19;20355;-60
2024/03/29 04:58:28;;;;;;;5.30;1.25;;;8.10;99.90;;;;;;7370580;19;20028;-62
2024/03/29 05:00:55;;;;;;;5.43;1.48;;;8.20;99.90;;;;;;7363649;19;20014;-60
2024/03/29 05:03:22;;;;;;;4.50;1.38;;;8.10;99.90;;;;;;7368292;19;20131;-61
2024/03/29 05:05:50;;;;;;;3.90;0.98;;;8.20;99.90;;;;;;7371059;19;20018;-60
2024/03/29 05:08:18;;;;;;;3.50;1.08;;;8.20;99.90;;;;;;7370831;19;20094;-60
2024/03/29 05:10:45;;;;;;;5.65;1.27;;;8.20;99.90;;;;;;7373418;19;20884;-59
2024/03/29 05:13:11;;;;;;;3.95;1.35;;;8.20;99.90;;;;;;7372064;19;20026;-59
2024/03/29 05:15:38;;;;;;;4.03;1.10;;;8.30;99.90;;;;;;7371075;19;20022;-60
2024/03/29 05:18:04;;;;;;;4.20;1.75;;;8.30;99.90;;;;;;7370730;19;20593;-60
2024/03/29 05:20:31;;;;;;;2.55;0.85;;;8.30;99.90;;;;;;7369006;19;20018;-63
2024/03/29 05:22:58;;;;;;;6.18;1.10;;;8.30;99.90;;;;;;7372393;19;20713;-62
2024/03/29 05:25:24;;;;;;;2.97;1.10;;;8.40;99.90;;;;;;7368593;19;20117;-62
2024/03/29 05:27:51;;;;;;;3.78;1.02;;;8.40;99.90;;;;;;7371502;19;20039;-60
2024/03/29 05:30:17;;;;;;;3.55;0.90;;;8.40;99.90;;;;;;7372896;19;20036;-62
2024/03/29 05:32:44;;;;;;;4.68;1.17;;;8.40;99.90;;;;;;7369799;19;20018;-62
2024/03/29 05:35:10;;;;;;;4.57;0.90;;;8.50;99.90;;;;;;7359705;19;20048;-62
2024/03/29 05:37:37;;;;;;;4.47;0.98;;;8.50;99.90;;;;;;7369412;19;20024;-62
2024/03/29 05:40:05;;;;;;;2.50;0.93;;;8.50;99.90;;;;;;7363653;19;20018;-61
2024/03/29 05:42:36;;;;;;;5.50;1.05;;;8.50;99.90;;;;;;7369056;19;20066;-59
2024/03/29 05:45:05;;;;;;;2.53;1.13;;;8.50;99.90;;;;;;7365971;19;20036;-59
2024/03/29 05:47:32;;;;;;;2.80;0.90;;;8.50;99.90;;;;;;7366475;19;20377;-61
2024/03/29 05:49:58;;;;;;;3.00;1.40;;;8.60;99.90;;;;;;7366845;19;20018;-61
2024/03/29 05:52:25;;;;;;;2.78;1.00;;;8.60;99.90;;;;;;7371142;19;20018;-61
2024/03/29 05:54:51;;;;;;;4.45;1.67;;;8.50;99.90;;;;;;7373432;19;20038;-64
2024/03/29 05:57:17;;;;;;;5.28;1.10;;;8.60;99.90;;;;;;7372462;19;20022;-62
2024/03/29 05:59:43;;;;;;;4.45;1.30;;;8.60;99.90;;;;;;7370183;19;20018;-60
2024/03/29 06:02:09;;;;;;;3.03;0.90;;;8.60;99.90;;;;;;7373874;19;20591;-62
2024/03/29 06:04:37;;;;;;;1.88;0.68;;;8.60;99.90;;;;;;7369967;19;20018;-61
2024/03/29 06:07:08;;;;;;;4.45;1.05;;;8.70;99.90;;;;;;7374296;19;20018;-62
2024/03/29 06:09:38;;;;;;;2.70;0.90;;;8.70;99.90;;;;;;7373019;19;20014;-60
2024/03/29 06:12:05;;;;;;;1.60;0.80;;;8.70;99.90;;;;;;7373853;19;20019;-62
2024/03/29 06:17:22;;;;;;;2.70;0.70;;;8.80;99.90;;;;;;7372193;19;20011;-60
2024/03/29 06:19:55;;;;;;;5.53;0.75;;;8.80;99.90;;;;;;7374743;19;20023;-62
2024/03/29 06:22:23;;;;;;;4.20;0.88;;;8.80;99.90;;;;;;7370574;19;20412;-60
2024/03/29 06:24:58;;;;;;;3.15;0.88;;;8.80;99.90;;;;;;7372809;19;20019;-60
2024/03/29 06:27:25;;;;;;;4.47;0.63;;;8.90;99.90;;;;;;7367274;19;20048;-62
2024/03/29 06:29:51;;;;;;;1.70;0.50;;;8.80;99.90;;;;;;7373578;19;20015;-60
2024/03/29 06:32:18;;;;;;;5.13;0.80;;;8.80;99.90;;;;;;7375251;19;20062;-62
2024/03/29 06:34:47;;;;;;;2.55;0.70;;;8.80;99.90;;;;;;7373580;19;20053;-63
2024/03/29 06:37:14;;;;;;;4.53;1.08;;;8.80;99.90;;;;;;7374678;19;20022;-62
2024/03/29 06:39:41;;;;;;;2.92;0.77;;;8.80;99.90;;;;;;7372344;19;20023;-60
2024/03/29 06:42:08;;;;;;;3.05;0.68;;;8.80;99.90;;;;;;7374795;19;20712;-60
2024/03/29 06:44:38;;;;;;;3.55;0.80;;;8.80;99.90;;;;;;7373129;19;20023;-62
2024/03/29 06:47:04;;;;;;;2.45;0.70;;;8.80;99.90;;;;;;7373912;19;20023;-60
2024/03/29 06:49:32;;;;;;;4.43;1.25;;;8.80;99.90;;;;;;7370000;19;20023;-60
2024/03/29 06:52:01;;;;;;;2.50;0.90;;;8.80;99.90;;;;;;7367726;19;20371;-60
2024/03/29 06:54:28;;;;;;;1.85;0.82;;;8.80;99.90;;;;;;7355383;19;20011;-60
2024/03/29 06:56:56;;;;;;;5.43;1.00;;;8.70;99.90;;;;;;7361844;19;20030;-62
2024/03/29 06:59:22;;;;;;;2.95;1.00;;;8.70;99.90;;;;;;7358776;19;20739;-62
2024/03/29 07:01:54;;;;;;;3.53;0.88;;;8.60;99.90;;;;;;7359826;19;20011;-60
2024/03/29 07:04:24;;;;;;;6.13;1.48;;;8.60;99.90;;;;;;7364777;19;20018;-61
2024/03/29 07:06:54;;;;;;;2.38;0.82;;;8.50;99.90;;;;;;7371238;19;20480;-62
2024/03/29 07:09:23;;;;;;;4.82;1.42;;;8.50;99.90;;;;;;7366955;19;20014;-62
2024/03/29 07:11:51;;;;;;;2.30;0.77;;;8.50;99.90;;;;;;7369696;19;20023;-64
2024/03/29 07:14:18;;;;;;;3.30;1.02;;;8.50;99.90;;;;;;7367833;19;20090;-63
2024/03/29 07:16:45;;;;;;;2.65;0.85;;;8.40;99.90;;;;;;7368239;19;20368;-62
2024/03/29 07:19:13;;;;;;;6.40;1.30;;;8.40;99.90;;;;;;7369046;19;20031;-60
2024/03/29 07:21:40;;;;;;;3.08;1.30;;;8.40;99.90;;;;;;7366583;19;20035;-60
2024/03/29 07:24:07;;;;;;;2.30;0.93;;;8.30;99.90;;;;;;7365328;19;20427;-60
2024/03/29 07:26:33;;;;;;;3.92;0.80;;;8.30;99.90;;;;;;7367620;19;20448;-63
2024/03/29 07:29:00;;;;;;;2.40;0.85;;;8.30;99.90;;;;;;7366206;19;20022;-61
2024/03/29 07:31:26;;;;;;;4.10;1.30;;;8.30;99.90;;;;;;7369096;19;20859;-61
2024/03/29 07:33:52;;;;;;;2.50;1.00;;;8.30;99.90;;;;;;7371570;19;20022;-61
2024/03/29 07:36:19;;;;;;;3.97;1.20;;;8.40;99.90;;;;;;7368072;19;20500;-60
2024/03/29 07:38:45;;;;;;;3.08;1.40;;;8.50;99.90;;;;;;7370310;19;20018;-60
2024/03/29 07:41:11;;;;;;;2.65;1.20;;;8.50;99.90;;;;;;7374631;19;20037;-60
2024/03/29 07:43:39;;;;;;;2.38;1.20;;;8.50;99.90;;;;;;7371822;19;20120;-61
2024/03/29 07:46:08;;;;;;;5.05;1.48;;;8.50;99.90;;;;;;7374567;19;20031;-63
2024/03/29 07:48:36;;;;;;;3.88;1.20;;;8.40;99.90;;;;;;7370970;19;20019;-61
2024/03/29 07:51:02;;;;;;;2.63;1.40;;;8.50;99.90;;;;;;7373271;19;20019;-60
2024/03/29 07:53:28;;;;;;;3.97;1.33;;;8.50;99.90;;;;;;7366256;19;20055;-63
2024/03/29 07:55:55;;;;;;;6.95;1.35;;;8.50;99.90;;;;;;7368384;19;20014;-63
2024/03/29 07:58:21;;;;;;;2.88;1.58;;;8.50;99.90;;;;;;7374028;19;20054;-63
2024/03/29 08:00:48;;;;;;;3.10;1.00;;;8.60;99.90;;;;;;7368459;19;20018;-63
2024/03/29 08:03:14;;;;;;;2.55;1.33;;;8.50;99.90;;;;;;7371737;19;20022;-63
2024/03/29 08:05:40;;;;;;;3.85;1.48;;;8.50;99.90;;;;;;7369785;19;20022;-64
2024/03/29 08:08:07;;;;;;;3.58;1.60;;;8.50;99.90;;;;;;7367392;19;20025;-61
2024/03/29 08:10:33;;;;;;;3.40;1.40;;;8.50;99.90;;;;;;7367909;19;20030;-62
2024/03/29 08:13:00;;;;;;;3.60;1.23;;;8.50;99.90;;;;;;7370614;19;20026;-61
2024/03/29 08:15:27;;;;;;;4.65;1.25;;;8.50;99.90;;;;;;7373085;19;20086;-61
2024/03/29 08:17:53;;;;;;;3.88;1.42;;;8.50;99.90;;;;;;7368652;19;20018;-63
2024/03/29 08:20:19;;;;;;;3.60;1.55;;;8.50;99.90;;;;;;7373855;19;20026;-61
2024/03/29 08:22:46;;;;;;;3.75;1.27;;;8.50;99.90;;;;;;7369935;19;20508;-61
2024/03/29 08:25:12;;;;;;;3.65;1.33;;;8.50;99.90;;;;;;7370093;19;20034;-61
2024/03/29 08:27:39;;;;;;;4.45;1.50;;;8.50;99.90;;;;;;7368410;19;20551;-61
2024/03/29 08:30:06;;;;;;;2.65;1.17;;;8.50;99.90;;;;;;7372168;19;20022;-63
2024/03/29 08:32:32;;;;;;;4.50;1.40;;;8.30;99.90;;;;;;7368779;19;20022;-61
2024/03/29 08:34:58;;;;;;;4.05;1.30;;;8.30;99.90;;;;;;7371300;19;20041;-61
2024/03/29 08:37:25;;;;;;;2.17;1.23;;;8.20;99.90;;;;;;7371512;19;20034;-61
2024/03/29 08:39:51;;;;;;;2.72;1.65;;;8.10;99.90;;;;;;7366455;19;20110;-64
2024/03/29 08:42:17;;;;;;;4.53;1.88;;;8.10;99.90;;;;;;7371116;19;20117;-62
2024/03/29 08:44:43;;;;;;;5.35;2.53;;;8.10;99.90;;;;;;7367920;19;20101;-61
2024/03/29 08:47:10;;;;;;;4.10;2.08;;;8.20;99.90;;;;;;7373633;19;20022;-60
2024/03/29 08:49:36;;;;;;;6.47;2.47;;;8.20;99.90;;;;;;7372036;19;20586;-61
2024/03/29 08:52:05;;;;;;;4.10;2.35;;;8.20;99.90;;;;;;7374099;19;20026;-61
2024/03/29 08:54:32;;;;;;;5.20;2.30;;;8.30;99.90;;;;;;7370263;19;20575;-60
2024/03/29 08:57:01;;;;;;;4.78;2.67;;;8.40;99.90;;;;;;7375320;19;20078;-62
2024/03/29 08:59:27;;;;;;;5.00;2.30;;;8.60;99.90;;;;;;7372343;19;20052;-60
2024/03/29 09:01:54;;;;;;;4.13;2.13;;;8.70;99.90;;;;;;7368964;19;20510;-62
2024/03/29 09:04:20;;;;;;;3.58;1.98;;;8.80;99.90;;;;;;7368940;19;20027;-60
2024/03/29 09:06:46;;;;;;;3.15;1.80;;;8.80;99.90;;;;;;7368402;19;20023;-61
2024/03/29 09:09:13;;;;;;;2.65;1.50;;;8.90;99.90;;;;;;7367757;19;20022;-60
2024/03/29 09:11:39;;;;;;;3.47;1.65;;;8.90;99.90;;;;;;7365284;19;20770;-62
2024/03/29 09:14:09;;;;;;;3.75;1.27;;;9.00;99.90;;;;;;7367648;19;20025;-62
2024/03/29 09:16:35;;;;;;;5.13;1.83;;;9.10;99.90;;;;;;7369985;19;20045;-62
2024/03/29 09:19:02;;;;;;;3.22;1.92;;;9.10;99.90;;;;;;7358245;19;20033;-62
2024/03/29 09:21:28;;;;;;;3.78;1.30;;;9.10;99.90;;;;;;7366408;19;20018;-60
2024/03/29 09:23:55;;;;;;;3.58;1.45;;;9.20;99.90;;;;;;7373512;19;20021;-60
2024/03/29 09:26:21;;;;;;;2.90;1.35;;;9.30;99.90;;;;;;7376915;19;20026;-61
2024/03/29 09:28:47;;;;;;;3.58;1.33;;;9.50;99.90;;;;;;7373275;19;20109;-60
2024/03/29 09:31:13;;;;;;;3.28;1.55;;;9.90;99.90;;;;;;7376938;19;20018;-60
2024/03/29 09:33:39;;;;;;;1.55;1.10;;;10.30;99.90;;;;;;7375638;19;20019;-63
2024/03/29 09:36:06;;;;;;;4.90;1.10;;;10.90;99.90;;;;;;7376816;19;20014;-60
2024/03/29 09:38:32;;;;;;;2.55;0.85;;;11.40;99.90;;;;;;7374890;19;20339;-61
2024/03/29 09:41:14;;;;;;;3.65;1.10;;;11.80;99.90;;;;;;7374049;19;20026;-63
2024/03/29 09:43:44;;;;;;;3.20;1.08;;;11.60;99.90;;;;;;7373788;19;20403;-60
2024/03/29 09:46:12;;;;;;;4.18;1.33;;;11.30;99.90;;;;;;7376656;19;20014;-62
2024/03/29 09:48:45;;;;;;;2.22;1.00;;;11.50;99.90;;;;;;7373814;19;20018;-60
2024/03/29 09:51:16;;;;;;;2.58;0.82;;;11.40;99.90;;;;;;7376114;19;20147;-60
2024/03/29 09:53:43;;;;;;;41.13;31.67;;;11.50;99.90;;;;;;7372386;19;20127;-65
2024/03/29 09:56:10;;;;;;;2.92;1.17;;;11.70;99.90;;;;;;7374640;19;20019;-58
2024/03/29 09:58:38;;;;;;;2.60;1.23;;;11.70;99.90;;;;;;7374574;19;20390;-62
2024/03/29 10:01:06;;;;;;;2.80;0.90;;;12.00;99.90;;;;;;7373826;19;20041;-60
2024/03/29 10:03:38;;;;;;;3.97;1.20;;;12.40;99.90;;;;;;7370010;19;20025;-62
2024/03/29 10:06:08;;;;;;;1.80;0.80;;;12.20;99.90;;;;;;7374426;19;20044;-60
2024/03/29 10:08:34;;;;;;;2.08;0.90;;;12.20;99.90;;;;;;7372824;19;20015;-59
2024/03/29 10:11:01;;;;;;;3.78;1.40;;;12.30;99.90;;;;;;7373572;19;20043;-60
2024/03/29 10:13:28;;;;;;;2.20;0.88;;;12.50;99.90;;;;;;7374878;19;20878;-59
2024/03/29 10:15:55;;;;;;;2.22;0.80;;;12.50;99.90;;;;;;7366129;19;20094;-62
2024/03/29 10:18:23;;;;;;;3.28;1.05;;;12.30;99.90;;;;;;7370330;19;20039;-62
2024/03/29 10:21:02;;;;;;;2.70;0.90;;;12.20;99.90;;;;;;7368426;19;20026;-60
2024/03/29 10:23:29;;;;;;;2.60;0.90;;;12.10;99.90;;;;;;7372110;19;20671;-62
2024/03/29 10:25:56;;;;;;;4.97;1.30;;;12.10;99.90;;;;;;7372868;19;20576;-62
2024/03/29 10:28:34;;;;;;;1.75;1.00;;;12.20;99.90;;;;;;7372960;19;20089;-60
2024/03/29 10:31:03;;;;;;;2.70;1.17;;;12.20;99.90;;;;;;7370869;19;20017;-60
2024/03/29 10:33:33;;;;;;;4.20;1.08;;;12.40;99.90;;;;;;7367454;19;20018;-60
2024/03/29 10:36:00;;;;;;;4.85;1.20;;;13.00;99.90;;;;;;7370831;19;20026;-60
2024/03/29 10:38:27;;;;;;;3.88;0.90;;;13.80;99.90;;;;;;7375954;19;20022;-59
2024/03/29 10:40:54;;;;;;;2.05;1.00;;;14.20;99.90;;;;;;7371854;19;20588;-62
2024/03/29 10:43:21;;;;;;;3.70;1.23;;;14.20;99.90;;;;;;7372067;19;20078;-61
2024/03/29 10:45:49;;;;;;;3.13;1.08;;;14.40;99.90;;;;;;7367767;19;20022;-62
2024/03/29 10:48:17;;;;;;;2.97;1.20;;;15.30;99.90;;;;;;7371946;19;20014;-60
2024/03/29 10:50:45;;;;;;;2.95;1.13;;;16.00;99.90;;;;;;7369281;19;20015;-60
2024/03/29 10:53:15;;;;;;;3.88;1.20;;;16.00;99.90;;;;;;7369351;19;21018;-60
2024/03/29 10:55:43;;;;;;;3.58;1.20;;;15.40;99.90;;;;;;7369634;19;20022;-60
2024/03/29 10:58:12;;;;;;;4.43;1.40;;;15.00;99.90;;;;;;7371439;19;20029;-60
2024/03/29 11:00:47;;;;;;;4.30;1.60;;;14.30;99.90;;;;;;7365502;19;21199;-62
2024/03/29 11:03:20;;;;;;;2.88;1.30;;;13.80;99.90;;;;;;7374099;19;20058;-60
2024/03/29 11:05:48;;;;;;;3.55;1.77;;;13.70;99.90;;;;;;7369071;19;20683;-60
2024/03/29 11:08:27;;;;;;;4.18;2.40;;;13.60;99.90;;;;;;7368611;19;20093;-61
2024/03/29 11:10:57;;;;;;;4.50;2.38;;;13.50;99.90;;;;;;7369194;19;20029;-62
2024/03/29 11:13:52;;;;;;;4.72;3.08;;;13.60;99.90;;;;;;7372915;19;20091;-61
2024/03/29 11:16:20;;;;;;;5.55;2.65;;;13.50;99.90;;;;;;7369860;19;20030;-61
2024/03/29 11:18:49;;;;;;;6.45;3.47;;;13.80;99.90;;;;;;7370837;19;20641;-60
2024/03/29 11:21:20;;;;;;;4.97;3.45;;;14.70;99.90;;;;;;7371409;19;20116;-61
2024/03/29 11:23:50;;;;;;;4.53;3.35;;;14.50;99.90;;;;;;7371296;19;20022;-60
2024/03/29 11:26:18;;;;;;;5.97;3.60;;;14.40;99.90;;;;;;7373159;19;20050;-62
2024/03/29 11:28:52;;;;;;;5.20;3.33;;;14.30;99.90;;;;;;7367167;19;20019;-60
2024/03/29 11:31:23;;;;;;;5.85;3.53;;;14.40;99.90;;;;;;7370540;19;20022;-60
2024/03/29 11:33:52;;;;;;;9.37;3.93;;;14.10;99.90;;;;;;7371680;19;20025;-60
2024/03/29 11:36:20;;;;;;;6.00;4.20;;;13.90;99.90;;;;;;7371155;19;20015;-60
2024/03/29 11:38:47;;;;;;;5.43;4.65;;;13.60;99.90;;;;;;7368786;19;20775;-60
2024/03/29 11:41:14;;;;;;;6.30;4.78;;;13.40;99.90;;;;;;7372298;19;20019;-60
2024/03/29 11:43:43;;;;;;;6.35;4.90;;;13.20;99.90;;;;;;7367673;19;20026;-60
2024/03/29 11:46:13;;;;;;;6.50;4.32;;;13.30;99.90;;;;;;7369631;19;20379;-61
2024/03/29 11:48:40;;;;;;;5.57;4.13;;;13.30;99.90;;;;;;7366838;19;20033;-60
2024/03/29 11:51:09;;;;;;;5.53;4.15;;;13.40;99.90;;;;;;7370447;19;20083;-60
2024/03/29 11:53:35;;;;;;;7.43;5.07;;;13.80;99.90;;;;;;7368718;19;20018;-60
2024/03/29 11:56:03;;;;;;;6.38;4.63;;;14.50;99.90;;;;;;7371264;19;20865;-60
2024/03/29 11:58:31;;;;;;;5.88;3.47;;;15.20;99.90;;;;;;7370175;19;20022;-60
2024/03/29 12:01:00;;;;;;;6.13;3.30;;;16.30;99.90;;;;;;7366683;19;20019;-61
2024/03/29 12:03:28;;;;;;;4.63;3.22;;;16.50;99.90;;;;;;7370816;19;20024;-60
2024/03/29 12:05:58;;;;;;;4.40;3.03;;;16.30;99.90;;;;;;7370543;19;21120;-61
2024/03/29 12:08:28;;;;;;;4.07;3.10;;;15.90;99.90;;;;;;7370773;19;20026;-59
2024/03/29 12:10:54;;;;;;;4.60;2.95;;;16.50;99.90;;;;;;7367729;19;20687;-60
2024/03/29 12:13:20;;;;;;;4.10;2.90;;;16.60;99.90;;;;;;7372869;19;20657;-60
2024/03/29 12:15:46;;;;;;;3.80;2.60;;;17.20;99.90;;;;;;7370092;19;20672;-61
2024/03/29 12:18:16;;;;;;;3.33;2.50;;;16.80;99.90;;;;;;7372954;19;20356;-61
2024/03/29 12:20:46;;;;;;;3.08;2.45;;;16.80;99.90;;;;;;7366234;19;20102;-61
2024/03/29 12:23:15;;;;;;;4.30;2.30;;;17.30;99.90;;;;;;7376212;19;20025;-60
2024/03/29 12:25:42;;;;;;;4.35;2.28;;;18.20;99.90;;;;;;7367547;19;20640;-61
2024/03/29 12:28:10;;;;;;;4.40;2.20;;;18.40;99.90;;;;;;7373042;19;20029;-60
2024/03/29 12:30:37;;;;;;;5.75;2.08;;;18.00;99.20;;;;;;7367186;19;20022;-60
2024/03/29 12:33:15;;;;;;;2.85;1.95;;;18.00;99.90;;;;;;7370525;19;20371;-62
2024/03/29 12:35:49;;;;;;;3.58;1.85;;;17.40;98.60;;;;;;7365639;19;20039;-60
2024/03/29 12:38:16;;;;;;;2.80;1.77;;;17.30;99.90;;;;;;7367609;19;20026;-60
2024/03/29 12:40:47;;;;;;;3.72;2.00;;;16.80;99.90;;;;;;7365836;19;20018;-60
2024/03/29 12:43:17;;;;;;;4.30;1.70;;;16.20;99.90;;;;;;7368165;19;20010;-62
2024/03/29 12:45:43;;;;;;;2.58;1.30;;;16.10;99.90;;;;;;7369134;19;20015;-60
2024/03/29 12:48:20;;;;;;;3.25;1.60;;;15.70;99.90;;;;;;7372314;19;20018;-61
2024/03/29 12:50:47;;;;;;;6.45;1.60;;;15.30;99.90;;;;;;7363729;19;20524;-60
2024/03/29 12:53:15;;;;;;;3.53;1.60;;;15.10;99.90;;;;;;7370351;19;20022;-60
2024/03/29 12:55:45;;;;;;;4.32;1.88;;;14.90;99.90;;;;;;7367560;19;20022;-61
2024/03/29 12:58:13;;;;;;;3.63;1.50;;;14.80;99.90;;;;;;7375973;19;20078;-61
2024/03/29 13:00:40;;;;;;;2.80;1.50;;;14.70;99.90;;;;;;7371445;19;20515;-59
2024/03/29 13:03:07;;;;;;;1.50;1.20;;;14.70;99.90;;;;;;7378520;19;20085;-61
2024/03/29 13:05:41;;;;;;;3.40;1.20;;;14.60;99.90;;;;;;7368982;19;20041;-59